Time,TemperatureF,DewpointF,PressureIn,WindDirection,WindDirectionDegrees,WindSpeedMPH,WindSpeedGustMPH,Humidity,HourlyPrecipIn,Conditions,Clouds,dailyrainin,SoftwareType,DateUTC
2013-08-23 00:13:00,72.0,70.0,30.03,WNW,283,0.0,-999.0,92,-99.99,,,-99.99,,2013-08-23 04:13:00,
2013-08-23 00:24:00,72.0,70.0,30.02,WNW,283,0.0,-999.0,92,-99.99,,,-99.99,,2013-08-23 04:24:00,
2013-08-23 00:43:00,72.0,70.0,30.02,WNW,283,0.0,-999.0,93,-99.99,,,-99.99,,2013-08-23 04:43:00,
2013-08-23 00:54:00,72.0,70.0,30.02,WNW,283,0.0,-999.0,93,-99.99,,,-99.99,,2013-08-23 04:54:00,
2013-08-23 01:13:00,72.0,70.0,30.01,WNW,283,0.0,-999.0,93,-99.99,,,-99.99,,2013-08-23 05:13:00,
2013-08-23 01:22:00,71.0,69.0,30.01,WNW,283,0.0,-999.0,93,-99.99,,,-99.99,,2013-08-23 05:22:00,
2013-08-23 01:42:00,71.0,69.0,30.01,WNW,283,0.0,-999.0,94,-99.99,,,-99.99,,2013-08-23 05:42:00,
2013-08-23 01:53:00,71.0,69.0,30.02,WNW,283,0.0,-999.0,94,-99.99,,,-99.99,,2013-08-23 05:53:00,
2013-08-23 02:12:00,71.0,69.0,30.01,WNW,283,0.0,-999.0,94,-99.99,,,-99.99,,2013-08-23 06:12:00,
2013-08-23 02:22:00,71.0,69.0,30.01,WNW,283,0.0,-999.0,94,-99.99,,,-99.99,,2013-08-23 06:22:00,
2013-08-23 02:42:00,71.0,69.0,30.00,WNW,283,0.0,-999.0,94,-99.99,,,-99.99,,2013-08-23 06:42:00,
2013-08-23 02:52:00,70.0,68.0,29.99,WNW,283,0.0,-999.0,95,-99.99,,,-99.99,,2013-08-23 06:52:00,
2013-08-23 03:12:00,70.0,68.0,29.98,WNW,283,0.0,-999.0,95,-99.99,,,-99.99,,2013-08-23 07:12:00,
2013-08-23 03:22:00,70.0,68.0,29.97,WNW,283,0.0,-999.0,95,-99.99,,,-99.99,,2013-08-23 07:22:00,
2013-08-23 03:53:00,70.0,68.0,29.97,WNW,283,0.0,-999.0,95,-99.99,,,-99.99,,2013-08-23 07:53:00,
2013-08-23 04:13:00,70.0,68.0,29.96,WNW,283,0.0,-999.0,95,-99.99,,,-99.99,,2013-08-23 08:13:00,
2013-08-23 04:22:00,70.0,68.0,29.97,WNW,283,0.0,-999.0,95,-99.99,,,-99.99,,2013-08-23 08:22:00,
2013-08-23 04:42:00,69.0,68.0,29.96,WNW,283,0.0,-999.0,95,-99.99,,,-99.99,,2013-08-23 08:42:00,
2013-08-23 04:52:00,69.0,68.0,29.97,West,276,0.0,-999.0,95,-99.99,,,-99.99,,2013-08-23 08:52:00,
2013-08-23 05:12:00,69.0,68.0,29.97,West,262,0.0,-999.0,95,-99.99,,,-99.99,,2013-08-23 09:12:00,
2013-08-23 05:21:00,69.0,68.0,29.97,WSW,246,1.0,-999.0,96,-99.99,,,-99.99,,2013-08-23 09:21:00,
2013-08-23 05:43:00,69.0,68.0,29.97,SSW,200,0.0,-999.0,96,-99.99,,,-99.99,,2013-08-23 09:43:00,
2013-08-23 05:53:00,69.0,68.0,29.98,SSW,200,0.0,-999.0,96,-99.99,,,-99.99,,2013-08-23 09:53:00,
2013-08-23 06:13:00,69.0,68.0,29.98,SSW,200,0.0,-999.0,96,-99.99,,,-99.99,,2013-08-23 10:13:00,
2013-08-23 06:23:00,69.0,68.0,29.98,SSW,200,0.0,-999.0,96,-99.99,,,-99.99,,2013-08-23 10:23:00,
2013-08-23 06:42:00,69.0,68.0,29.98,WNW,302,0.0,-999.0,96,-99.99,,,-99.99,,2013-08-23 10:42:00,
2013-08-23 06:53:00,69.0,68.0,29.98,WNW,302,0.0,-999.0,96,-99.99,,,-99.99,,2013-08-23 10:53:00,
2013-08-23 07:11:00,69.0,68.0,29.98,NW,312,0.0,-999.0,96,-99.99,,,-99.99,,2013-08-23 11:11:00,
2013-08-23 07:22:00,69.0,68.0,29.99,West,281,0.0,-999.0,96,-99.99,,,-99.99,,2013-08-23 11:22:00,
2013-08-23 07:42:00,69.0,68.0,30.00,West,281,0.0,-999.0,96,-99.99,,,-99.99,,2013-08-23 11:42:00,
2013-08-23 07:53:00,69.0,68.0,30.01,West,281,0.0,-999.0,96,-99.99,,,-99.99,,2013-08-23 11:53:00,
2013-08-23 08:11:00,69.0,68.0,30.01,West,281,0.0,-999.0,96,-99.99,,,-99.99,,2013-08-23 12:11:00,
2013-08-23 08:22:00,69.0,68.0,30.01,West,281,0.0,-999.0,96,-99.99,,,-99.99,,2013-08-23 12:22:00,
2013-08-23 08:42:00,69.0,68.0,30.01,West,281,0.0,-999.0,97,-99.99,,,-99.99,,2013-08-23 12:42:00,
2013-08-23 08:52:00,69.0,68.0,30.01,West,281,0.0,-999.0,96,-99.99,,,-99.99,,2013-08-23 12:52:00,
2013-08-23 09:12:00,70.0,69.0,30.02,West,281,0.0,-999.0,97,-99.99,,,-99.99,,2013-08-23 13:12:00,
2013-08-23 09:22:00,71.0,70.0,30.02,NW,306,0.0,-999.0,97,-99.99,,,-99.99,,2013-08-23 13:22:00,
2013-08-23 09:42:00,71.0,69.0,30.02,NW,306,0.0,-999.0,95,-99.99,,,-99.99,,2013-08-23 13:42:00,
2013-08-23 09:53:00,72.0,70.0,30.02,NW,306,0.0,-999.0,94,-99.99,,,-99.99,,2013-08-23 13:53:00,
2013-08-23 10:12:00,74.0,71.0,30.02,South,182,0.0,-999.0,91,-99.99,,,-99.99,,2013-08-23 14:12:00,
2013-08-23 10:22:00,77.0,72.0,30.02,SE,126,0.0,-999.0,85,-99.99,,,-99.99,,2013-08-23 14:22:00,
2013-08-23 10:42:00,79.0,72.0,30.02,NNE,31,0.0,-999.0,80,-99.99,,,-99.99,,2013-08-23 14:42:00,
2013-08-23 11:11:00,81.0,72.0,30.02,East,86,0.0,-999.0,73,-99.99,,,-99.99,,2013-08-23 15:11:00,
2013-08-23 11:22:00,81.0,71.0,30.03,North,11,0.0,-999.0,72,-99.99,,,-99.99,,2013-08-23 15:22:00,
2013-08-23 11:44:00,82.0,72.0,30.03,North,355,0.0,-999.0,72,-99.99,,,-99.99,,2013-08-23 15:44:00,
2013-08-23 11:54:00,83.0,71.0,30.02,NNE,30,0.0,-999.0,68,-99.99,,,-99.99,,2013-08-23 15:54:00,
2013-08-23 12:14:00,84.0,72.0,30.02,NNW,338,1.0,-999.0,68,-99.99,,,-99.99,,2013-08-23 16:14:00,
2013-08-23 12:24:00,83.0,70.0,30.01,ENE,71,3.0,-999.0,66,-99.99,,,-99.99,,2013-08-23 16:24:00,
2013-08-23 12:42:00,84.0,71.0,30.01,NW,323,1.0,-999.0,66,-99.99,,,-99.99,,2013-08-23 16:42:00,
2013-08-23 12:53:00,84.0,72.0,30.01,North,11,2.0,-999.0,67,-99.99,,,-99.99,,2013-08-23 16:53:00,
2013-08-23 13:13:00,85.0,71.0,30.00,North,5,1.0,-999.0,64,-99.99,,,-99.99,,2013-08-23 17:13:00,
2013-08-23 13:24:00,86.0,72.0,30.00,West,281,2.0,-999.0,63,-99.99,,,-99.99,,2013-08-23 17:24:00,
2013-08-23 13:43:00,85.0,71.0,29.99,NNW,335,2.0,-999.0,63,-99.99,,,-99.99,,2013-08-23 17:43:00,
2013-08-23 13:54:00,86.0,71.0,29.98,ENE,60,1.0,-999.0,62,-99.99,,,-99.99,,2013-08-23 17:54:00,
2013-08-23 14:12:00,86.0,71.0,29.98,NW,317,2.0,-999.0,62,-99.99,,,-99.99,,2013-08-23 18:12:00,
2013-08-23 14:22:00,86.0,70.0,29.98,North,351,1.0,-999.0,60,-99.99,,,-99.99,,2013-08-23 18:22:00,
2013-08-23 14:42:00,88.0,71.0,29.97,NW,314,1.0,-999.0,58,-99.99,,,-99.99,,2013-08-23 18:42:00,
2013-08-23 14:52:00,88.0,71.0,29.97,NW,314,1.0,-999.0,58,-99.99,,,-99.99,,2013-08-23 18:52:00,
2013-08-23 15:12:00,88.0,70.0,29.96,WNW,302,1.0,-999.0,56,-99.99,,,-99.99,,2013-08-23 19:12:00,
2013-08-23 15:22:00,88.0,70.0,29.95,WNW,295,1.0,-999.0,56,-99.99,,,-99.99,,2013-08-23 19:22:00,
2013-08-23 15:42:00,87.0,68.0,29.94,NW,315,1.0,-999.0,54,-99.99,,,-99.99,,2013-08-23 19:42:00,
2013-08-23 15:52:00,89.0,70.0,29.93,NW,323,0.0,-999.0,54,-99.99,,,-99.99,,2013-08-23 19:52:00,
2013-08-23 16:12:00,88.0,69.0,29.93,NNW,330,2.0,-999.0,53,-99.99,,,-99.99,,2013-08-23 20:12:00,
2013-08-23 16:22:00,88.0,70.0,29.93,NNW,329,2.0,-999.0,55,-99.99,,,-99.99,,2013-08-23 20:22:00,
2013-08-23 16:42:00,89.0,70.0,29.92,NW,305,1.0,-999.0,53,-99.99,,,-99.99,,2013-08-23 20:42:00,
2013-08-23 16:52:00,88.0,69.0,29.93,WNW,289,1.0,-999.0,54,-99.99,,,-99.99,,2013-08-23 20:52:00,
2013-08-23 17:11:00,88.0,71.0,29.93,WNW,292,0.0,-999.0,57,-99.99,,,-99.99,,2013-08-23 21:11:00,
2013-08-23 17:22:00,87.0,71.0,29.93,West,275,0.0,-999.0,60,-99.99,,,-99.99,,2013-08-23 21:22:00,
2013-08-23 17:44:00,85.0,71.0,29.93,NW,306,1.0,-999.0,64,-99.99,,,-99.99,,2013-08-23 21:44:00,
2013-08-23 17:54:00,85.0,72.0,29.93,WNW,300,0.0,-999.0,66,-99.99,,,-99.99,,2013-08-23 21:54:00,
2013-08-23 18:13:00,85.0,70.0,29.94,NW,317,0.0,-999.0,61,-99.99,,,-99.99,,2013-08-23 22:13:00,
2013-08-23 18:24:00,80.0,68.0,29.96,North,5,7.0,-999.0,67,-99.99,,,-99.99,,2013-08-23 22:24:00,
2013-08-23 19:22:00,75.0,67.0,29.96,East,90,0.0,-999.0,76,-99.99,,,-99.99,,2013-08-23 23:22:00,
2013-08-23 19:43:00,75.0,67.0,29.98,SE,133,0.0,-999.0,77,-99.99,,,-99.99,,2013-08-23 23:43:00,
2013-08-23 19:54:00,75.0,68.0,29.98,SE,142,0.0,-999.0,80,-99.99,,,-99.99,,2013-08-23 23:54:00,
2013-08-23 20:11:00,74.0,68.0,29.98,SSE,166,1.0,-999.0,81,-99.99,,,-99.99,,2013-08-24 00:11:00,
2013-08-23 20:22:00,74.0,68.0,30.00,WSW,253,0.0,-999.0,82,-99.99,,,-99.99,,2013-08-24 00:22:00,
2013-08-23 20:43:00,73.0,68.0,30.00,WSW,251,0.0,-999.0,83,-99.99,,,-99.99,,2013-08-24 00:43:00,
2013-08-23 20:53:00,73.0,68.0,29.99,West,279,0.0,-999.0,84,-99.99,,,-99.99,,2013-08-24 00:53:00,
2013-08-23 21:11:00,73.0,68.0,29.99,West,279,0.0,-999.0,84,-99.99,,,-99.99,,2013-08-24 01:11:00,
2013-08-23 21:22:00,73.0,68.0,30.00,West,276,0.0,-999.0,85,-99.99,,,-99.99,,2013-08-24 01:22:00,
2013-08-23 21:42:00,73.0,69.0,30.02,West,276,0.0,-999.0,87,-99.99,,,-99.99,,2013-08-24 01:42:00,
2013-08-23 21:53:00,72.0,69.0,30.02,West,277,0.0,-999.0,89,-99.99,,,-99.99,,2013-08-24 01:53:00,
2013-08-23 22:12:00,72.0,69.0,30.01,West,277,0.0,-999.0,90,-99.99,,,-99.99,,2013-08-24 02:12:00,
2013-08-23 22:22:00,71.0,68.0,30.01,West,277,0.0,-999.0,91,-99.99,,,-99.99,,2013-08-24 02:22:00,
2013-08-23 22:42:00,71.0,68.0,30.00,West,277,0.0,-999.0,90,-99.99,,,-99.99,,2013-08-24 02:42:00,
2013-08-23 22:52:00,71.0,68.0,30.00,West,278,0.0,-999.0,91,-99.99,,,-99.99,,2013-08-24 02:52:00,
2013-08-23 23:12:00,71.0,69.0,29.99,NW,315,0.0,-999.0,92,-99.99,,,-99.99,,2013-08-24 03:12:00,
2013-08-23 23:22:00,71.0,69.0,30.01,NW,315,0.0,-999.0,92,-99.99,,,-99.99,,2013-08-24 03:22:00,
2013-08-23 23:44:00,70.0,68.0,30.01,NW,315,0.0,-999.0,93,-99.99,,,-99.99,,2013-08-24 03:44:00,
2013-08-23 23:55:00,70.0,68.0,30.01,NW,315,0.0,-999.0,92,-99.99,,,-99.99,,2013-08-24 03:55:00,